createdAt,value
2023-01-13T01:45:31.819Z,99.99
2023-01-13T05:50:35.635Z,99.99
2023-01-13T06:17:12.323Z,99.99
2023-01-13T06:50:11.802Z,99.99
2023-01-13T06:51:11.758Z,99.99
2023-01-13T06:52:11.764Z,99.99
2023-01-13T06:53:11.750Z,99.99
2023-01-13T06:54:11.989Z,99.99
2023-01-13T06:55:11.726Z,99.99
2023-01-13T06:56:11.917Z,99.99
2023-01-13T06:57:11.696Z,99.99
2023-01-13T06:58:11.723Z,99.99
2023-01-13T07:01:17.845Z,99.99
2023-01-13T07:02:11.739Z,99.99
2023-01-13T07:04:11.592Z,99.99
2023-01-13T07:05:11.570Z,99.99
2023-01-13T07:06:11.775Z,99.99
2023-01-13T07:07:11.562Z,99.99
2023-01-13T07:08:17.556Z,99.99
2023-01-13T07:09:11.739Z,99.99
2023-01-13T07:10:11.527Z,99.99
2023-01-13T07:11:11.490Z,99.99
2023-01-13T07:12:11.838Z,99.99
2023-01-13T07:13:11.486Z,99.99
2023-01-13T07:14:17.479Z,99.99
2023-01-13T07:15:11.668Z,99.99
2023-01-13T07:16:11.508Z,99.99
2023-01-13T07:17:11.646Z,99.99
2023-01-13T07:18:11.428Z,99.99
2023-01-13T07:19:11.429Z,99.99
2023-01-13T07:20:11.409Z,99.99
2023-01-13T07:21:11.392Z,99.99
2023-01-13T07:22:11.409Z,99.99
2023-01-13T07:23:17.374Z,99.99
2023-01-13T07:24:11.365Z,99.99
2023-01-13T07:25:11.347Z,99.99
2023-01-13T07:26:11.335Z,99.99
2023-01-13T07:27:11.336Z,99.99
2023-01-13T07:28:11.414Z,99.99
2023-01-13T07:29:11.297Z,99.99
2023-01-13T07:30:11.309Z,99.99
2023-01-13T07:31:11.387Z,99.99
2023-01-13T07:32:11.288Z,99.99
2023-01-13T07:33:11.269Z,99.99
2023-01-13T07:34:11.244Z,99.99
2023-01-13T07:35:11.245Z,99.99
2023-01-13T07:36:11.246Z,99.99
2023-01-13T07:37:48.158Z,99.99
2023-01-13T07:38:47.915Z,99.99
2023-01-13T07:40:24.814Z,99.99
2023-01-13T07:41:24.588Z,99.99
2023-01-13T07:42:24.593Z,99.99
2023-01-13T07:43:24.576Z,99.99
2023-01-13T07:44:24.563Z,99.99
2023-01-13T07:45:24.554Z,99.99
2023-01-13T07:46:24.749Z,99.99
2023-01-13T07:47:24.521Z,99.99
2023-01-13T07:48:24.509Z,99.99
2023-01-13T07:49:24.515Z,99.99
2023-01-13T07:50:24.486Z,99.99
2023-01-13T07:51:24.705Z,99.99
2023-01-13T07:52:24.470Z,99.99
2023-01-13T07:53:24.494Z,99.99
2023-01-13T07:54:40.318Z,99.99
2023-01-13T07:55:25.655Z,99.99
2023-01-13T07:56:24.428Z,99.99
2023-01-13T07:57:24.420Z,99.99
2023-01-13T07:58:24.419Z,99.99
2023-01-13T07:59:24.402Z,99.99
2023-01-13T08:00:24.401Z,99.99
2023-01-13T08:02:37.873Z,99.99
2023-01-13T08:03:37.795Z,99.99
2023-01-13T08:04:37.771Z,99.99
2023-01-13T08:05:37.978Z,99.99
2023-01-13T08:06:37.741Z,99.99
2023-01-13T08:07:37.734Z,99.99
2023-01-13T08:08:37.765Z,99.99
2023-01-13T08:09:37.710Z,99.99
2023-01-13T08:10:37.710Z,99.99
2023-01-13T08:11:37.797Z,99.99
2023-01-13T08:12:37.685Z,99.99
2023-01-13T08:13:37.672Z,99.99
2023-01-13T08:14:37.655Z,99.99
2023-01-13T08:15:37.664Z,99.99
2023-01-13T08:16:37.701Z,99.99
2023-01-13T08:17:37.626Z,99.99
2023-01-13T08:18:37.621Z,99.99
2023-01-13T08:19:37.629Z,99.99
2023-01-13T08:20:37.596Z,99.99
2023-01-13T08:21:43.619Z,99.99
2023-01-13T08:22:37.577Z,99.99
2023-01-13T08:23:37.570Z,99.99
2023-01-13T08:24:43.663Z,99.99
2023-01-13T08:25:43.771Z,99.99
2023-01-13T08:26:37.642Z,99.99
2023-01-13T08:27:37.518Z,99.99
2023-01-13T08:28:37.510Z,99.99
2023-01-13T08:29:37.499Z,99.99
2023-01-13T08:30:37.530Z,99.99
2023-01-13T08:31:37.492Z,99.99
2023-01-13T08:32:37.467Z,99.99
2023-01-13T08:33:37.461Z,99.99
2023-01-13T08:34:37.461Z,99.99
2023-01-13T08:35:37.637Z,99.99
2023-01-13T08:36:37.440Z,99.99
2023-01-13T08:37:38.460Z,99.99
2023-01-13T08:38:37.438Z,99.99
2023-01-13T08:39:37.389Z,99.99
2023-01-13T08:40:37.400Z,99.99
2023-01-13T08:41:37.380Z,98.58
2023-01-13T08:42:37.567Z,98.90
2023-01-13T08:43:37.556Z,97.73
2023-01-13T08:44:37.332Z,97.01
2023-01-13T08:45:37.325Z,95.23
2023-01-13T08:46:37.315Z,94.66
2023-01-13T08:47:43.326Z,96.00
2023-01-13T08:48:37.311Z,92.98
2023-01-13T08:49:37.284Z,94.51
2023-01-13T08:50:37.264Z,91.26
2023-01-13T08:51:37.255Z,90.67
2023-01-13T08:52:37.458Z,87.77
2023-01-13T08:53:37.240Z,88.20
2023-01-13T08:54:37.444Z,87.04
2023-01-13T08:55:37.216Z,86.02
2023-01-13T08:56:37.290Z,84.08
2023-01-13T08:57:37.192Z,85.96
2023-01-13T08:58:37.335Z,86.85
2023-01-13T08:59:37.167Z,85.46
2023-01-13T09:00:37.160Z,85.96
2023-01-13T09:01:37.277Z,85.29
2023-01-13T09:02:37.151Z,83.29
2023-01-13T09:03:37.133Z,84.22
2023-01-13T09:04:37.148Z,87.10
2023-01-13T09:05:43.116Z,87.50
2023-01-13T09:06:37.111Z,89.95
2023-01-13T09:07:37.113Z,90.10
2023-01-13T09:08:37.076Z,91.47
2023-01-13T09:09:37.068Z,92.32
2023-01-13T09:10:37.054Z,90.83
2023-01-13T09:11:37.054Z,91.13
2023-01-13T09:12:37.063Z,93.78
2023-01-13T09:13:37.034Z,94.03
2023-01-13T09:14:37.017Z,94.07
2023-01-13T09:15:37.159Z,96.33
2023-01-13T09:16:37.190Z,97.14
2023-01-13T09:17:36.988Z,97.91
2023-01-13T09:18:36.970Z,96.68
2023-01-13T09:19:36.970Z,97.75
2023-01-13T09:20:36.960Z,97.34
2023-01-13T09:21:36.934Z,97.24
2023-01-13T09:22:36.929Z,96.52
2023-01-13T09:23:36.931Z,96.46
2023-01-13T09:24:36.916Z,96.77
2023-01-13T09:25:36.910Z,97.29
2023-01-13T09:26:37.145Z,97.39
2023-01-13T09:27:36.882Z,96.36
2023-01-13T09:28:36.900Z,96.77
2023-01-13T09:29:36.905Z,98.10
2023-01-13T09:31:13.590Z,98.10
2023-01-13T09:32:13.544Z,98.31
2023-01-13T09:33:13.529Z,96.77
2023-01-13T09:34:13.518Z,97.59
2023-01-13T09:35:19.511Z,98.31
2023-01-13T09:36:13.493Z,98.21
2023-01-13T09:37:13.599Z,98.82
2023-01-13T09:38:13.694Z,97.29
2023-01-13T09:39:13.670Z,98.82
2023-01-13T09:40:13.456Z,98.47
2023-01-13T09:41:13.429Z,97.19
2023-01-13T09:42:13.532Z,96.68
2023-01-13T09:43:13.413Z,96.58
2023-01-13T09:44:13.438Z,96.27
2023-01-13T09:45:13.398Z,94.32
2023-01-13T09:46:13.443Z,96.06
2023-01-13T09:47:14.205Z,96.99
2023-01-13T09:48:13.571Z,96.93
2023-01-13T09:49:13.364Z,97.60
2023-01-13T09:50:13.342Z,97.85
2023-01-13T09:51:13.384Z,97.75
2023-01-13T09:52:13.329Z,94.72
2023-01-13T09:53:13.309Z,96.36
2023-01-13T09:54:13.304Z,97.80
2023-01-13T09:55:13.286Z,97.90
2023-01-13T09:56:13.283Z,99.02
2023-01-13T09:57:13.309Z,98.10
2023-01-13T09:58:13.256Z,98.21
2023-01-13T09:59:13.265Z,96.46
2023-01-13T10:00:13.263Z,97.80
2023-01-13T10:01:13.334Z,97.65
2023-01-13T10:02:13.211Z,97.55
2023-01-13T10:03:13.243Z,96.58
2023-01-13T10:04:13.444Z,95.10
2023-01-13T10:05:13.183Z,93.46
2023-01-13T10:06:13.185Z,94.28
2023-01-13T10:07:13.163Z,94.39
2023-01-13T10:08:13.162Z,93.36
2023-01-13T10:09:13.297Z,92.69
2023-01-13T10:10:13.145Z,92.99
2023-01-13T10:11:13.136Z,93.10
2023-01-13T10:12:13.316Z,91.77
2023-01-13T10:13:13.100Z,92.18
2023-01-13T10:14:13.098Z,92.44
2023-01-13T10:15:13.296Z,92.13
2023-01-13T10:16:19.234Z,92.29
2023-01-13T10:17:13.083Z,92.46
2023-01-13T10:18:13.050Z,87.67
2023-01-13T10:19:19.048Z,84.28
2023-01-13T10:20:19.046Z,81.49
2023-01-13T10:21:19.227Z,78.60
2023-01-13T10:22:19.023Z,78.03
2023-01-13T10:26:02.604Z,78.71
2023-01-13T10:27:02.515Z,78.11
2023-01-13T10:28:02.501Z,82.56
2023-01-13T10:29:02.701Z,82.53
2023-01-13T10:30:02.484Z,81.69
2023-01-13T10:31:02.631Z,82.99
2023-01-13T10:32:02.498Z,85.79
2023-01-13T10:33:02.446Z,85.04
2023-01-13T10:34:02.433Z,85.69
2023-01-13T10:35:02.428Z,86.38
2023-01-13T10:36:02.613Z,83.45
2023-01-13T10:37:02.399Z,84.85
2023-01-13T10:38:08.627Z,85.61
2023-01-13T10:39:02.390Z,87.48
2023-01-13T10:40:02.367Z,86.24
2023-01-13T10:41:02.375Z,87.77
2023-01-13T10:42:02.362Z,85.51
2023-01-13T10:43:08.373Z,82.55
2023-01-13T10:44:02.385Z,86.05
2023-01-13T10:45:02.330Z,85.28
2023-01-13T10:46:08.396Z,87.16
2023-01-13T10:47:02.299Z,87.60
2023-01-13T10:48:02.323Z,88.01
2023-01-13T10:49:02.378Z,87.65
2023-01-13T10:50:02.270Z,87.95
2023-01-13T10:51:02.255Z,89.94
2023-01-13T10:52:02.379Z,89.39
2023-01-13T10:53:02.238Z,88.36
2023-01-13T10:54:02.223Z,89.59
2023-01-13T10:55:02.213Z,88.77
2023-01-13T10:56:08.226Z,89.75
2023-01-13T10:57:02.212Z,88.94
2023-01-13T10:58:02.205Z,88.98
2023-01-13T10:59:08.191Z,89.18
2023-01-13T11:00:02.216Z,91.39
2023-01-13T11:01:02.298Z,88.69
2023-01-13T11:02:03.938Z,87.67
2023-01-13T11:03:08.374Z,89.97
2023-01-13T11:04:02.323Z,86.34
2023-01-13T11:05:02.158Z,88.69
2023-01-13T11:06:02.106Z,89.34
2023-01-13T11:07:02.139Z,87.24
2023-01-13T11:08:02.080Z,88.26
2023-01-13T11:09:02.078Z,89.08
2023-01-13T11:10:02.063Z,90.76
2023-01-13T11:11:02.062Z,90.04
2023-01-13T11:12:02.045Z,89.27
2023-01-13T11:13:04.363Z,91.68
2023-01-13T11:14:02.036Z,89.84
2023-01-13T11:15:04.061Z,90.19
2023-01-13T11:16:02.040Z,91.93
2023-01-13T11:17:02.003Z,91.62
2023-01-13T11:18:01.985Z,92.44
2023-01-13T11:19:02.085Z,92.38
2023-01-13T11:20:01.992Z,95.00
2023-01-13T11:21:02.152Z,93.26
2023-01-13T11:22:07.948Z,95.06
2023-01-13T11:23:01.932Z,94.14
2023-01-13T11:24:08.024Z,94.03
2023-01-13T11:25:01.997Z,94.14
2023-01-13T11:26:01.896Z,92.13
2023-01-13T11:27:01.922Z,92.69
2023-01-13T11:28:02.075Z,94.12
2023-01-13T11:29:01.864Z,94.39
2023-01-13T11:30:01.949Z,93.77
2023-01-13T11:31:01.876Z,94.02
2023-01-13T11:32:01.837Z,93.81
2023-01-13T11:33:01.823Z,95.05
2023-01-13T11:34:01.971Z,95.39
2023-01-13T11:35:01.823Z,96.83
2023-01-13T11:36:01.806Z,96.67
2023-01-13T11:37:02.005Z,96.16
2023-01-13T11:38:01.807Z,97.18
2023-01-13T11:39:01.982Z,97.49
2023-01-13T11:40:02.180Z,98.87
2023-01-13T11:41:07.778Z,99.59
2023-01-13T11:42:01.740Z,99.99
2023-01-13T11:43:01.731Z,99.99
2023-01-13T11:44:01.710Z,99.99
2023-01-13T11:45:01.709Z,99.99
2023-01-13T11:46:01.702Z,99.99
2023-01-13T11:47:01.725Z,99.99
2023-01-13T11:48:01.684Z,99.99
2023-01-13T11:51:42.287Z,99.99
2023-01-13T11:52:42.207Z,99.99
2023-01-13T11:53:42.189Z,99.99
2023-01-13T11:54:43.300Z,99.99
2023-01-13T11:55:48.212Z,99.99
2023-01-13T11:56:42.205Z,99.99
2023-01-13T11:57:42.357Z,99.99
2023-01-13T11:58:50.932Z,99.99
2023-01-13T11:59:42.138Z,99.99
2023-01-13T12:00:42.123Z,99.99
2023-01-13T12:01:42.156Z,99.99
2023-01-13T12:02:42.398Z,99.99
2023-01-13T12:03:42.090Z,99.99
2023-01-13T12:04:48.302Z,99.99
2023-01-13T12:05:48.072Z,99.99
2023-01-13T12:06:42.055Z,99.99
2023-01-13T12:07:48.234Z,99.99
2023-01-13T12:08:42.036Z,99.99
2023-01-13T12:09:42.027Z,99.99
2023-01-13T12:10:42.021Z,99.99
2023-01-13T12:11:42.220Z,99.99
2023-01-13T12:12:42.023Z,99.99
2023-01-13T12:13:41.981Z,99.99
2023-01-13T12:14:41.979Z,99.99
2023-01-13T12:15:41.960Z,99.99
2023-01-13T12:16:42.017Z,99.99
2023-01-13T12:17:41.957Z,99.99
2023-01-13T12:18:42.101Z,99.99
2023-01-13T12:19:47.928Z,99.99
2023-01-13T12:20:41.926Z,99.99
2023-01-13T12:21:41.911Z,99.99
2023-01-13T12:22:41.892Z,99.99
2023-01-13T12:23:41.901Z,99.99
2023-01-13T12:24:41.877Z,99.99
2023-01-13T12:25:41.871Z,99.99
2023-01-13T12:26:41.864Z,99.99
2023-01-13T12:27:42.050Z,99.99
2023-01-13T12:28:41.900Z,99.99
2023-01-13T12:29:41.827Z,99.99
2023-01-13T12:30:42.010Z,99.99
2023-01-13T12:31:42.084Z,99.99
2023-01-13T12:32:47.814Z,99.99
2023-01-13T12:33:41.788Z,99.99
2023-01-13T12:34:41.785Z,99.99
2023-01-13T12:35:41.772Z,99.99
2023-01-13T12:36:42.054Z,99.80
2023-01-13T12:37:41.733Z,97.65
2023-01-13T12:38:41.727Z,99.70
2023-01-13T12:39:41.750Z,98.57
2023-01-13T12:40:41.708Z,97.55
2023-01-13T12:41:41.693Z,97.14
2023-01-13T12:42:41.682Z,97.03
2023-01-13T12:43:41.657Z,97.75
2023-01-13T12:44:41.664Z,97.44
2023-01-13T12:45:43.739Z,96.93
2023-01-13T12:46:41.734Z,97.44
2023-01-13T12:47:41.619Z,96.93
2023-01-13T12:48:41.613Z,95.34
2023-01-13T12:49:41.607Z,95.75
2023-01-13T12:50:41.586Z,95.70
2023-01-13T12:51:41.582Z,95.80
2023-01-13T12:52:41.576Z,96.17
2023-01-13T12:53:41.565Z,96.64
2023-01-13T12:54:41.555Z,96.13
2023-01-13T12:55:41.571Z,95.31
2023-01-13T12:56:47.744Z,96.06
2023-01-13T12:57:41.519Z,95.92
2023-01-13T12:58:41.528Z,95.41
2023-01-13T12:59:41.500Z,94.89
2023-01-13T13:00:41.706Z,95.26
2023-01-13T13:01:41.806Z,93.99
2023-01-13T13:02:41.558Z,92.66
2023-01-13T13:03:43.514Z,90.88
2023-01-13T13:04:47.663Z,90.47
2023-01-13T13:05:41.436Z,92.41
2023-01-13T13:06:41.429Z,93.90
2023-01-13T13:07:47.461Z,90.59
2023-01-13T13:08:41.413Z,92.32
2023-01-13T13:09:41.422Z,92.73
2023-01-13T13:10:41.391Z,89.67
2023-01-13T13:11:41.449Z,91.86
2023-01-13T13:12:41.371Z,90.74
2023-01-13T13:13:41.359Z,90.78
2023-01-13T13:14:41.469Z,90.82
2023-01-13T13:15:41.340Z,91.84
2023-01-13T13:16:41.363Z,90.96
2023-01-13T13:17:47.336Z,93.15
2023-01-13T13:18:41.508Z,92.99
2023-01-13T13:19:41.507Z,93.10
2023-01-13T13:20:41.286Z,93.04
2023-01-13T13:21:41.269Z,94.78
2023-01-13T13:22:41.270Z,94.58
2023-01-13T13:23:41.282Z,94.31
2023-01-13T13:24:47.260Z,94.11
2023-01-13T13:25:41.434Z,94.51
2023-01-13T13:26:41.385Z,95.03
2023-01-13T13:27:41.241Z,93.53
2023-01-13T13:28:41.204Z,95.07
2023-01-13T13:29:41.193Z,93.38
2023-01-13T13:30:41.222Z,93.45
2023-01-13T13:31:41.547Z,93.71
2023-01-13T13:32:43.155Z,93.11
2023-01-13T13:33:41.138Z,92.87
2023-01-13T13:34:41.136Z,91.33
2023-01-13T13:35:41.119Z,92.62
2023-01-13T13:36:41.109Z,90.16
2023-01-13T13:37:41.099Z,90.98
2023-01-13T13:38:47.109Z,90.47
2023-01-13T13:39:43.089Z,90.83
2023-01-13T13:40:41.074Z,89.88
2023-01-13T13:41:41.059Z,90.35
2023-01-13T13:42:41.056Z,88.71
2023-01-13T13:43:41.272Z,88.30
2023-01-13T13:44:41.018Z,89.06
2023-01-13T13:45:41.069Z,86.75
2023-01-13T13:46:41.406Z,86.69
2023-01-13T13:47:40.993Z,90.41
2023-01-13T13:48:46.992Z,90.51
2023-01-13T13:49:40.968Z,90.41
2023-01-13T13:50:40.981Z,89.59
2023-01-13T13:51:40.987Z,90.20
2023-01-13T13:52:40.954Z,91.64
2023-01-13T13:53:41.080Z,90.00
2023-01-13T13:54:40.970Z,91.13
2023-01-13T13:55:40.911Z,86.36
2023-01-13T13:56:40.904Z,90.76
2023-01-13T13:57:40.898Z,91.58
2023-01-13T13:58:41.051Z,89.43
2023-01-13T13:59:46.908Z,91.17
2023-01-13T14:00:41.068Z,90.60
2023-01-13T14:01:41.075Z,91.41
2023-01-13T14:02:40.835Z,92.34
2023-01-13T14:03:40.835Z,92.54
2023-01-13T14:04:41.021Z,91.72
2023-01-13T14:05:46.813Z,91.21
2023-01-13T14:06:46.797Z,90.90
2023-01-13T14:07:40.781Z,91.31
2023-01-13T14:08:46.858Z,91.62
2023-01-13T14:09:40.835Z,89.27
2023-01-13T14:10:40.961Z,91.11
2023-01-13T14:11:40.710Z,91.52
2023-01-13T14:12:40.695Z,91.25
2023-01-13T14:13:40.686Z,91.66
2023-01-13T14:14:40.667Z,91.35
2023-01-13T14:15:40.728Z,92.27
2023-01-13T14:16:40.848Z,91.40
2023-01-13T14:17:40.634Z,90.84
2023-01-13T14:18:40.632Z,92.48
2023-01-13T14:19:46.817Z,92.07
2023-01-13T14:20:40.705Z,91.52
2023-01-13T14:21:40.590Z,91.41
2023-01-13T14:22:40.573Z,93.52
2023-01-13T14:23:46.576Z,92.15
2023-01-13T14:24:40.564Z,91.13
2023-01-13T14:25:40.556Z,89.73
2023-01-13T14:26:40.536Z,91.47
2023-01-13T14:27:40.531Z,91.47
2023-01-13T14:28:40.522Z,89.92
2023-01-13T14:29:40.499Z,89.51
2023-01-13T14:30:46.573Z,89.66
2023-01-13T14:31:40.490Z,89.59
2023-01-13T14:33:21.200Z,90.91
2023-01-13T14:34:32.305Z,90.81
2023-01-13T14:35:22.192Z,92.29
2023-01-13T14:36:21.193Z,92.95
2023-01-13T14:37:21.121Z,92.95
2023-01-13T14:38:21.113Z,94.07
2023-01-13T14:39:21.106Z,93.92
2023-01-13T14:40:21.094Z,94.32
2023-01-13T14:41:21.082Z,94.63
2023-01-13T14:42:21.062Z,95.30
2023-01-13T14:43:21.062Z,95.60
2023-01-13T14:44:21.070Z,95.40
2023-01-13T14:45:21.234Z,96.02
2023-01-13T14:46:21.154Z,95.70
2023-01-13T14:47:21.033Z,94.78
2023-01-13T14:48:21.003Z,95.60
2023-01-13T14:49:27.008Z,96.02
2023-01-13T14:50:21.172Z,95.40
2023-01-13T14:51:20.978Z,95.95
2023-01-13T14:52:20.964Z,96.36
2023-01-13T14:53:26.965Z,96.36
2023-01-13T14:54:26.964Z,96.57
2023-01-13T14:55:57.857Z,96.47
2023-01-13T14:56:57.615Z,96.67
2023-01-13T14:57:57.599Z,96.57
2023-01-13T14:58:57.595Z,97.13
2023-01-13T14:59:57.785Z,97.24
2023-01-13T15:01:03.606Z,96.52
2023-01-13T15:01:57.628Z,95.89
2023-01-13T15:02:57.666Z,96.16
2023-01-13T15:03:57.537Z,97.03
2023-01-13T15:04:57.532Z,96.61
2023-01-13T15:05:57.735Z,97.24
2023-01-13T15:06:59.570Z,97.65
2023-01-13T15:07:57.516Z,97.85
2023-01-13T15:08:57.496Z,96.72
2023-01-13T15:09:57.487Z,96.92
2023-01-13T15:10:57.461Z,97.44
2023-01-13T15:11:57.651Z,96.41
2023-01-13T15:12:57.439Z,97.03
2023-01-13T15:13:57.437Z,96.52
2023-01-13T15:14:57.433Z,97.03
2023-01-13T15:15:57.472Z,96.00
2023-01-13T15:17:03.637Z,96.61
2023-01-13T15:17:57.404Z,97.13
2023-01-13T15:18:57.379Z,97.38
2023-01-13T15:19:57.373Z,97.49
2023-01-13T15:20:57.586Z,98.00
2023-01-13T15:21:57.553Z,97.79
2023-01-13T15:22:57.485Z,98.31
2023-01-13T15:23:57.345Z,98.21
2023-01-13T15:24:57.312Z,98.56
2023-01-13T15:25:57.301Z,97.84
2023-01-13T15:26:57.301Z,98.05
2023-01-13T15:27:57.607Z,97.94
2023-01-13T15:28:57.277Z,98.46
2023-01-13T15:29:57.277Z,98.77
2023-01-13T15:30:57.269Z,98.46
2023-01-13T15:31:57.265Z,99.07
2023-01-13T15:32:57.321Z,99.28
2023-01-13T15:33:57.231Z,99.18
2023-01-13T15:34:57.222Z,98.97
2023-01-13T15:36:03.244Z,99.49
2023-01-13T15:36:59.253Z,99.18
2023-01-13T15:37:57.386Z,99.49
2023-01-13T15:38:57.175Z,98.97
2023-01-13T15:39:57.164Z,99.23
2023-01-13T15:40:57.149Z,98.77
2023-01-13T15:41:57.141Z,98.25
2023-01-13T15:42:57.134Z,98.35
2023-01-13T15:43:57.135Z,97.43
2023-01-13T15:44:57.108Z,97.12
2023-01-13T15:45:57.118Z,96.40
2023-01-13T15:46:57.096Z,96.71
2023-01-13T15:47:57.072Z,97.22
2023-01-13T15:48:57.142Z,97.63
2023-01-13T15:49:59.144Z,97.12
2023-01-13T15:50:57.049Z,97.74
2023-01-13T15:51:57.052Z,97.74
2023-01-13T15:52:57.250Z,97.22
2023-01-13T15:53:57.023Z,97.94
2023-01-13T15:54:57.119Z,97.88
2023-01-13T15:55:56.991Z,97.58
2023-01-13T15:56:56.982Z,97.99
2023-01-13T15:57:57.185Z,98.50
2023-01-13T15:58:56.961Z,98.76
2023-01-13T15:59:56.959Z,98.96
2023-01-13T16:00:57.071Z,98.96
2023-01-13T16:01:56.942Z,98.65
2023-01-13T16:02:57.033Z,98.13
2023-01-13T16:03:56.919Z,97.93
2023-01-13T16:04:56.930Z,98.44
2023-01-13T16:05:57.053Z,98.44
2023-01-13T16:06:56.893Z,98.65
2023-01-13T16:07:56.897Z,99.06
2023-01-13T16:08:56.871Z,99.58
2023-01-13T16:09:56.856Z,99.68
2023-01-13T16:10:56.852Z,99.99
2023-01-13T16:11:56.991Z,99.99
2023-01-13T16:12:56.834Z,99.99
2023-01-13T16:13:56.814Z,99.99
2023-01-13T16:14:56.809Z,99.99
2023-01-13T16:15:56.887Z,99.99
2023-01-13T16:16:56.945Z,99.99
2023-01-13T16:17:56.775Z,99.99
2023-01-13T16:18:56.926Z,99.99
2023-01-13T16:19:56.764Z,99.99
2023-01-13T16:20:56.783Z,99.99
2023-01-13T16:21:56.751Z,99.99
2023-01-13T16:22:56.753Z,99.99
2023-01-13T16:23:56.731Z,99.99
2023-01-13T16:25:02.741Z,99.99
2023-01-13T16:25:56.711Z,99.99
2023-01-13T16:26:56.711Z,99.99
2023-01-13T16:27:56.697Z,99.99
2023-01-13T16:28:56.691Z,99.99
2023-01-13T16:29:56.668Z,99.99
2023-01-13T16:31:02.686Z,99.99
2023-01-13T16:31:56.673Z,99.99
2023-01-13T16:32:56.657Z,99.99
2023-01-13T16:33:56.641Z,99.99
2023-01-13T16:54:56.512Z,99.99
2023-01-13T16:57:56.496Z,99.99
2023-01-13T16:59:02.496Z,99.99
2023-01-13T16:59:56.667Z,99.99
2023-01-13T17:02:56.454Z,99.99
2023-01-13T17:03:56.473Z,99.99
2023-01-13T17:04:56.423Z,99.99
2023-01-13T17:05:56.422Z,99.99
2023-01-13T17:06:56.409Z,99.99
2023-01-13T17:07:56.420Z,99.99
2023-01-13T17:08:56.377Z,99.99
2023-01-13T17:09:56.364Z,99.99
2023-01-13T17:10:56.363Z,99.99
2023-01-13T17:11:56.357Z,99.99
2023-01-13T17:12:58.276Z,99.99
2023-01-13T17:13:56.481Z,99.99
2023-01-13T17:14:56.325Z,99.99
2023-01-13T17:15:56.327Z,99.99
2023-01-13T17:16:58.378Z,99.99
2023-01-13T17:17:56.295Z,99.99
2023-01-13T17:18:56.388Z,99.99
2023-01-13T17:19:56.264Z,99.99
2023-01-13T17:20:56.269Z,99.99
2023-01-13T17:21:56.258Z,99.99
2023-01-13T17:23:02.286Z,99.99
2023-01-13T17:23:56.431Z,99.99
2023-01-13T17:24:56.316Z,99.99
2023-01-13T17:25:56.200Z,99.99
2023-01-13T17:26:56.198Z,99.99
2023-01-13T17:27:56.184Z,99.99
2023-01-13T17:28:56.194Z,99.99
2023-01-13T17:29:56.276Z,99.99
2023-01-13T17:31:56.186Z,99.99
2023-01-13T17:32:56.130Z,99.99
2023-01-13T17:33:56.148Z,99.99
2023-01-13T17:34:56.141Z,99.99
2023-01-13T17:35:56.167Z,99.99
2023-01-13T17:36:56.105Z,99.99
2023-01-13T17:37:56.084Z,99.99
2023-01-13T17:39:56.283Z,99.99
2023-01-13T17:40:56.050Z,99.99
2023-01-13T17:42:56.031Z,99.99
2023-01-13T17:43:56.027Z,99.99
2023-01-13T17:44:56.022Z,99.99
2023-01-13T17:45:56.022Z,99.99
2023-01-13T17:46:56.097Z,99.99
2023-01-13T17:47:55.990Z,99.99
2023-01-13T17:48:55.964Z,99.99
2023-01-13T17:49:55.966Z,99.99
2023-01-13T17:50:55.947Z,99.99
2023-01-13T17:51:55.940Z,99.99
2023-01-13T17:52:55.937Z,99.99
2023-01-13T17:53:55.923Z,99.99
2023-01-13T17:54:55.956Z,99.99
2023-01-13T17:55:56.095Z,99.99
2023-01-13T17:56:55.989Z,99.99
2023-01-13T17:58:01.904Z,99.99
2023-01-13T17:59:01.881Z,99.99
2023-01-13T17:59:55.867Z,99.99
2023-01-13T18:00:55.906Z,99.99
2023-01-13T18:02:55.944Z,99.99
2023-01-13T18:03:55.822Z,99.99
2023-01-13T18:04:55.810Z,99.99
2023-01-13T18:05:55.796Z,99.99
2023-01-13T18:06:55.783Z,99.99
2023-01-13T18:07:55.767Z,99.99
2023-01-13T18:08:55.753Z,99.99
2023-01-13T18:09:55.765Z,99.99
2023-01-13T18:11:01.773Z,99.99
2023-01-13T18:11:55.733Z,99.99
2023-01-13T18:12:55.815Z,99.99
2023-01-13T18:13:55.700Z,99.99
2023-01-13T18:14:55.690Z,99.99
2023-01-13T18:15:55.683Z,99.99
2023-01-13T18:16:55.734Z,99.99
2023-01-13T18:18:55.912Z,99.99
2023-01-13T18:19:55.653Z,99.99
2023-01-13T18:20:55.641Z,99.99
2023-01-13T18:22:38.603Z,99.99
2023-01-13T18:23:32.363Z,99.99
2023-01-13T18:24:32.355Z,99.99
2023-01-13T18:25:32.353Z,99.99
2023-01-13T18:26:32.356Z,99.99
2023-01-13T18:28:32.324Z,99.99
2023-01-13T18:29:32.421Z,99.99
2023-01-13T18:30:32.298Z,99.99
2023-01-13T18:31:38.297Z,99.99
2023-01-13T18:32:33.146Z,99.99
2023-01-13T18:33:32.271Z,99.99
2023-01-13T18:34:32.249Z,99.99
2023-01-13T18:35:38.267Z,99.99
2023-01-13T18:36:32.243Z,99.99
2023-01-13T18:37:32.251Z,99.99
2023-01-13T18:38:32.464Z,99.99
2023-01-13T18:39:32.200Z,99.99
2023-01-13T18:40:32.199Z,99.99
2023-01-13T18:41:38.227Z,99.99
2023-01-13T18:42:32.173Z,99.99
2023-01-13T18:43:32.183Z,99.99
2023-01-13T18:44:32.150Z,99.99
2023-01-13T18:45:32.171Z,99.99
2023-01-13T18:46:32.174Z,99.99
2023-01-13T18:47:32.135Z,99.99
2023-01-13T18:48:32.119Z,99.99
2023-01-13T18:49:32.155Z,99.99
2023-01-13T18:50:38.102Z,99.99
2023-01-13T18:51:32.089Z,99.99
2023-01-13T18:52:32.078Z,99.99
2023-01-13T18:53:32.064Z,99.99
2023-01-13T18:54:32.043Z,99.99
2023-01-13T18:55:32.310Z,99.99
2023-01-13T18:56:32.028Z,99.99
2023-01-13T18:57:32.035Z,99.99
2023-01-13T18:58:32.013Z,99.99
2023-01-13T18:59:32.002Z,99.99
2023-01-13T19:00:37.993Z,99.99
2023-01-13T19:01:32.064Z,99.99
2023-01-13T19:02:32.029Z,99.99
2023-01-13T19:03:31.967Z,99.99
2023-01-13T19:04:31.937Z,99.99
2023-01-13T19:05:32.045Z,99.99
2023-01-13T19:06:32.719Z,99.99
2023-01-13T19:07:31.921Z,99.99
2023-01-13T19:08:31.931Z,99.99
2023-01-13T19:09:31.894Z,99.99
2023-01-13T19:10:32.100Z,99.99
2023-01-13T19:11:31.875Z,99.99
2023-01-13T19:12:31.868Z,99.99
2023-01-13T19:13:31.882Z,99.99
2023-01-13T19:14:32.051Z,99.99
2023-01-13T19:15:32.022Z,99.99
2023-01-13T19:16:31.836Z,99.99
2023-01-13T19:17:31.825Z,99.99
2023-01-13T19:18:31.808Z,99.99
2023-01-13T19:19:33.804Z,99.99
2023-01-13T19:20:37.783Z,99.99
2023-01-13T19:22:16.604Z,99.99
2023-01-13T19:23:16.589Z,99.99
2023-01-13T19:24:16.576Z,99.99
2023-01-13T19:25:16.576Z,99.99
2023-01-13T19:26:16.558Z,99.99
2023-01-13T19:27:16.547Z,99.99
2023-01-13T19:28:16.544Z,99.99
2023-01-13T19:29:16.561Z,99.99
2023-01-13T19:30:16.512Z,99.99
2023-01-13T19:31:16.558Z,99.99
2023-01-13T19:32:16.700Z,99.99
2023-01-13T19:33:16.495Z,99.99
2023-01-13T19:34:16.466Z,99.99
2023-01-13T19:35:16.472Z,99.99
2023-01-13T19:36:16.451Z,99.99
2023-01-13T19:37:16.455Z,99.99
2023-01-13T19:38:16.630Z,99.99
2023-01-13T19:39:16.420Z,99.99
2023-01-13T19:40:16.640Z,99.99
2023-01-13T19:41:16.410Z,99.99
2023-01-13T19:42:16.405Z,99.99
2023-01-13T19:43:16.408Z,99.99
2023-01-13T19:44:16.381Z,99.99
2023-01-13T19:45:16.388Z,99.99
2023-01-13T19:46:16.369Z,99.99
2023-01-13T19:47:16.343Z,99.99
2023-01-13T19:48:22.352Z,99.99
2023-01-13T19:49:16.527Z,99.99
2023-01-13T19:50:16.340Z,99.99
2023-01-13T19:54:38.229Z,99.99
2023-01-13T19:55:32.242Z,99.99
2023-01-13T19:56:32.211Z,99.99
2023-01-13T19:57:32.213Z,99.99
2023-01-13T19:58:32.177Z,99.99
2023-01-13T20:00:18.959Z,99.99
2023-01-13T20:01:12.951Z,99.99
2023-01-13T20:02:13.004Z,99.99
2023-01-13T20:03:12.977Z,99.99
2023-01-13T20:04:12.906Z,99.99
2023-01-13T20:06:34.549Z,99.99
2023-01-13T20:07:34.393Z,99.99
2023-01-13T20:09:15.134Z,99.99
2023-01-13T20:10:15.126Z,99.99
2023-01-13T20:11:15.119Z,99.99
2023-01-13T20:12:21.150Z,99.99
2023-01-13T20:13:15.087Z,99.99
2023-01-13T20:14:21.100Z,99.99
2023-01-13T20:15:21.112Z,99.99
2023-01-13T20:16:15.101Z,99.99
2023-01-13T20:17:15.064Z,99.99
2023-01-13T20:18:15.036Z,99.99
2023-01-13T20:19:15.026Z,99.99
2023-01-13T20:20:15.227Z,99.99
2023-01-13T20:21:14.999Z,99.99
2023-01-13T20:22:15.011Z,99.99
2023-01-13T20:25:35.500Z,99.99
2023-01-13T20:26:29.478Z,99.99
2023-01-13T20:27:29.259Z,99.99
2023-01-13T20:28:29.259Z,99.99
2023-01-13T20:29:29.243Z,99.99
2023-01-13T20:30:29.300Z,99.99
2023-01-13T20:32:12.193Z,99.99